createdAt,value
2018-03-02T00:00:05.106Z,-0.69
2018-03-02T00:01:08.424Z,-0.69
2018-03-02T00:02:11.891Z,-0.71
2018-03-02T00:03:15.222Z,-0.72
2018-03-02T00:04:18.579Z,-0.73
2018-03-02T00:05:22.025Z,-0.74
2018-03-02T00:06:25.337Z,-0.76
2018-03-02T00:07:28.761Z,-0.78
2018-03-02T00:08:32.255Z,-0.80
2018-03-02T00:09:35.587Z,-0.81
2018-03-02T00:10:39.057Z,-0.82
2018-03-02T00:11:42.385Z,-0.83
2018-03-02T00:12:45.861Z,-0.86
2018-03-02T00:13:49.175Z,-0.86
2018-03-02T00:14:52.508Z,-0.87
2018-03-02T00:15:55.865Z,-0.87
2018-03-02T00:16:59.374Z,-0.87
2018-03-02T00:18:02.860Z,-0.88
2018-03-02T00:19:06.163Z,-0.86
2018-03-02T00:20:09.732Z,-0.86
2018-03-02T00:21:13.047Z,-0.87
2018-03-02T00:22:16.417Z,-0.87
2018-03-02T00:23:19.867Z,-0.87
2018-03-02T00:24:23.291Z,-0.88
2018-03-02T00:25:26.684Z,-0.90
2018-03-02T00:26:30.009Z,-0.89
2018-03-02T00:27:33.404Z,-0.90
2018-03-02T00:28:36.751Z,-0.91
2018-03-02T00:29:40.070Z,-0.92
2018-03-02T00:30:43.432Z,-0.93
2018-03-02T00:31:47.000Z,-0.93
2018-03-02T00:32:50.350Z,-0.92
2018-03-02T00:33:53.749Z,-0.94
2018-03-02T00:34:57.058Z,-0.96
2018-03-02T00:36:00.388Z,-0.97
2018-03-02T00:37:03.768Z,-0.98
2018-03-02T00:38:07.106Z,-0.99
2018-03-02T00:39:10.577Z,-0.99
2018-03-02T00:40:13.908Z,-0.99
2018-03-02T00:41:17.287Z,-1.00
2018-03-02T00:42:21.679Z,-1.00
2018-03-02T00:43:25.009Z,-1.01
2018-03-02T00:44:28.348Z,-1.03
2018-03-02T00:45:31.797Z,-1.05
2018-03-02T00:46:35.223Z,-1.06
2018-03-02T00:47:38.572Z,-1.07
2018-03-02T00:48:41.957Z,-1.08
2018-03-02T00:49:45.378Z,-1.09
2018-03-02T00:50:48.758Z,-1.10
2018-03-02T00:51:52.177Z,-1.12
2018-03-02T00:52:55.599Z,-1.12
2018-03-02T00:53:58.987Z,-1.13
2018-03-02T00:55:02.352Z,-1.15
2018-03-02T00:56:05.868Z,-1.15
2018-03-02T00:57:09.213Z,-1.16
2018-03-02T00:58:12.576Z,-1.17
2018-03-02T00:59:15.934Z,-1.18
2018-03-02T01:00:19.341Z,-1.19
2018-03-02T01:01:22.734Z,-1.20
2018-03-02T01:02:26.141Z,-1.19
2018-03-02T01:03:29.453Z,-1.20
2018-03-02T01:04:32.794Z,-1.21
2018-03-02T01:05:36.169Z,-1.22
2018-03-02T01:06:39.557Z,-1.22
2018-03-02T01:07:42.974Z,-1.24
2018-03-02T01:08:46.488Z,-1.26
2018-03-02T01:09:49.899Z,-1.27
2018-03-02T01:10:53.360Z,-1.29
2018-03-02T01:11:56.847Z,-1.31
2018-03-02T01:13:00.227Z,-1.33
2018-03-02T01:14:03.621Z,-1.36
2018-03-02T01:15:06.968Z,-1.36
2018-03-02T01:16:10.446Z,-1.37
2018-03-02T01:17:13.876Z,-1.36
2018-03-02T01:18:17.219Z,-1.34
2018-03-02T01:19:20.562Z,-1.35
2018-03-02T01:20:23.953Z,-1.34
2018-03-02T01:21:27.436Z,-1.34
2018-03-02T01:22:30.784Z,-1.34
2018-03-02T01:23:34.105Z,-1.33
2018-03-02T01:24:37.480Z,-1.34
2018-03-02T01:25:40.895Z,-1.35
2018-03-02T01:26:44.263Z,-1.34
2018-03-02T01:27:47.629Z,-1.34
2018-03-02T01:28:50.981Z,-1.33
2018-03-02T01:29:54.379Z,-1.34
2018-03-02T01:30:57.707Z,-1.36
2018-03-02T01:32:01.335Z,-1.36
2018-03-02T01:33:04.708Z,-1.36
2018-03-02T01:34:08.109Z,-1.36
2018-03-02T01:35:11.437Z,-1.36
2018-03-02T01:36:14.968Z,-1.38
2018-03-02T01:37:18.392Z,-1.39
2018-03-02T01:38:21.728Z,-1.39
2018-03-02T01:39:25.038Z,-1.39
2018-03-02T01:40:28.369Z,-1.39
2018-03-02T01:41:31.745Z,-1.41
2018-03-02T01:42:35.091Z,-1.42
2018-03-02T01:43:38.563Z,-1.43
2018-03-02T01:44:42.005Z,-1.45
2018-03-02T01:45:45.420Z,-1.45
2018-03-02T01:46:48.810Z,-1.44
2018-03-02T01:47:52.274Z,-1.43
2018-03-02T01:48:55.677Z,-1.42
2018-03-02T01:49:59.053Z,-1.41
2018-03-02T01:51:02.470Z,-1.41
2018-03-02T01:52:05.811Z,-1.40
2018-03-02T01:53:09.393Z,-1.41
2018-03-02T01:54:12.765Z,-1.41
2018-03-02T01:55:16.149Z,-1.41
2018-03-02T01:56:19.465Z,-1.44
2018-03-02T01:57:22.811Z,-1.43
2018-03-02T01:58:26.201Z,-1.42
2018-03-02T01:59:29.520Z,-1.42
2018-03-02T02:00:32.851Z,-1.42
2018-03-02T02:01:36.252Z,-1.41
2018-03-02T02:02:39.622Z,-1.40
2018-03-02T02:03:42.987Z,-1.39
2018-03-02T02:04:46.414Z,-1.40
2018-03-02T02:05:49.785Z,-1.43
2018-03-02T02:06:53.132Z,-1.44
2018-03-02T02:07:56.525Z,-1.45
2018-03-02T02:08:59.890Z,-1.44
2018-03-02T02:10:03.233Z,-1.43
2018-03-02T02:11:06.662Z,-1.45
2018-03-02T02:12:10.048Z,-1.45
2018-03-02T02:13:13.426Z,-1.45
2018-03-02T02:14:16.773Z,-1.46
2018-03-02T02:15:20.171Z,-1.45
2018-03-02T02:16:23.565Z,-1.45
2018-03-02T02:17:26.882Z,-1.43
2018-03-02T02:18:30.200Z,-1.42
2018-03-02T02:19:33.588Z,-1.40
2018-03-02T02:20:36.948Z,-1.41
2018-03-02T02:21:40.285Z,-1.39
2018-03-02T02:22:43.638Z,-1.39
2018-03-02T02:23:47.077Z,-1.41
2018-03-02T02:24:50.433Z,-1.44
2018-03-02T02:25:53.774Z,-1.46
2018-03-02T02:26:57.123Z,-1.46
2018-03-02T02:28:00.600Z,-1.46
2018-03-02T02:29:03.918Z,-1.46
2018-03-02T02:30:07.295Z,-1.46
2018-03-02T02:31:10.663Z,-1.48
2018-03-02T02:32:14.053Z,-1.48
2018-03-02T02:33:17.398Z,-1.49
2018-03-02T02:34:20.783Z,-1.47
2018-03-02T02:35:24.217Z,-1.46
2018-03-02T02:36:27.564Z,-1.45
2018-03-02T02:37:30.876Z,-1.46
2018-03-02T02:38:34.189Z,-1.46
2018-03-02T02:39:37.634Z,-1.46
2018-03-02T02:40:41.122Z,-1.45
2018-03-02T02:41:44.489Z,-1.44
2018-03-02T02:42:47.907Z,-1.45
2018-03-02T02:43:51.218Z,-1.43
2018-03-02T02:44:54.549Z,-1.44
2018-03-02T02:45:58.017Z,-1.45
2018-03-02T02:47:01.394Z,-1.44
2018-03-02T02:48:04.733Z,-1.44
2018-03-02T02:49:08.087Z,-1.44
2018-03-02T02:50:11.421Z,-1.46
2018-03-02T02:51:14.820Z,-1.51
2018-03-02T02:52:18.146Z,-1.53
2018-03-02T02:53:21.652Z,-1.55
2018-03-02T02:54:25.030Z,-1.55
2018-03-02T02:55:28.405Z,-1.55
2018-03-02T02:56:31.797Z,-1.56
2018-03-02T02:57:35.117Z,-1.57
2018-03-02T02:58:38.507Z,-1.59
2018-03-02T02:59:41.869Z,-1.59
2018-03-02T03:00:45.283Z,-1.58
2018-03-02T03:01:48.683Z,-1.59
2018-03-02T03:02:52.190Z,-1.59
2018-03-02T03:03:55.597Z,-1.59
2018-03-02T03:04:58.925Z,-1.62
2018-03-02T03:06:02.232Z,-1.64
2018-03-02T03:07:05.572Z,-1.65
2018-03-02T03:08:08.942Z,-1.66
2018-03-02T03:09:12.260Z,-1.67
2018-03-02T03:10:15.651Z,-1.68
2018-03-02T03:11:18.965Z,-1.71
2018-03-02T03:12:22.418Z,-1.73
2018-03-02T03:13:25.775Z,-1.74
2018-03-02T03:14:29.096Z,-1.76
2018-03-02T03:15:32.583Z,-1.78
2018-03-02T03:16:35.948Z,-1.81
2018-03-02T03:17:39.369Z,-1.82
2018-03-02T03:18:42.676Z,-1.82
2018-03-02T03:19:45.986Z,-1.82
2018-03-02T03:20:49.307Z,-1.82
2018-03-02T03:21:52.620Z,-1.82
2018-03-02T03:22:56.070Z,-1.83
2018-03-02T03:23:59.380Z,-1.83
2018-03-02T03:25:02.752Z,-1.84
2018-03-02T03:26:06.132Z,-1.86
2018-03-02T03:27:09.608Z,-1.90
2018-03-02T03:28:13.047Z,-1.91
2018-03-02T03:29:16.401Z,-1.92
2018-03-02T03:30:19.709Z,-1.92
2018-03-02T03:31:23.078Z,-1.92
2018-03-02T03:32:26.554Z,-1.92
2018-03-02T03:33:29.908Z,-1.94
2018-03-02T03:34:33.293Z,-1.95
2018-03-02T03:35:36.730Z,-1.96
2018-03-02T03:36:40.095Z,-1.96
2018-03-02T03:37:43.486Z,-1.95
2018-03-02T03:38:46.869Z,-1.95
2018-03-02T03:39:50.242Z,-1.94
2018-03-02T03:40:53.685Z,-1.91
2018-03-02T03:41:57.124Z,-1.91
2018-03-02T03:43:00.517Z,-1.91
2018-03-02T03:44:03.957Z,-1.89
2018-03-02T03:45:07.384Z,-1.88
2018-03-02T03:46:10.694Z,-1.87
2018-03-02T03:47:14.027Z,-1.86
2018-03-02T03:48:17.483Z,-1.85
2018-03-02T03:49:20.897Z,-1.85
2018-03-02T03:50:24.235Z,-1.84
2018-03-02T03:51:27.567Z,-1.83
2018-03-02T03:52:31.016Z,-1.82
2018-03-02T03:53:34.448Z,-1.81
2018-03-02T03:54:37.989Z,-1.83
2018-03-02T03:55:41.492Z,-1.83
2018-03-02T03:56:44.933Z,-1.83
2018-03-02T03:57:48.299Z,-1.85
2018-03-02T03:58:51.641Z,-1.85
2018-03-02T03:59:55.089Z,-1.85
2018-03-02T04:00:58.498Z,-1.86
2018-03-02T04:02:01.893Z,-1.84
2018-03-02T04:03:05.225Z,-1.84
2018-03-02T04:04:08.591Z,-1.84
2018-03-02T04:05:12.014Z,-1.85
2018-03-02T04:06:15.409Z,-1.86
2018-03-02T04:07:18.820Z,-1.85
2018-03-02T04:08:22.128Z,-1.84
2018-03-02T04:09:25.465Z,-1.82
2018-03-02T04:10:28.892Z,-1.83
2018-03-02T04:11:32.272Z,-1.82
2018-03-02T04:12:35.664Z,-1.83
2018-03-02T04:13:39.016Z,-1.84
2018-03-02T04:14:42.390Z,-1.86
2018-03-02T04:15:45.861Z,-1.90
2018-03-02T04:16:49.232Z,-1.92
2018-03-02T04:17:52.597Z,-1.93
2018-03-02T04:18:56.066Z,-1.95
2018-03-02T04:19:59.462Z,-1.96
2018-03-02T04:21:02.874Z,-1.96
2018-03-02T04:22:06.275Z,-1.96
2018-03-02T04:23:09.586Z,-1.96
2018-03-02T04:24:12.998Z,-1.96
2018-03-02T04:25:16.337Z,-1.96
2018-03-02T04:26:19.828Z,-1.95
2018-03-02T04:27:23.145Z,-1.96
2018-03-02T04:28:26.538Z,-1.96
2018-03-02T04:29:29.960Z,-1.96
2018-03-02T04:30:33.305Z,-1.96
2018-03-02T04:31:36.713Z,-1.95
2018-03-02T04:32:40.149Z,-1.97
2018-03-02T04:33:43.603Z,-1.98
2018-03-02T04:34:46.962Z,-2.00
2018-03-02T04:35:50.331Z,-2.01
2018-03-02T04:36:53.744Z,-2.03
2018-03-02T04:37:57.181Z,-2.03
2018-03-02T04:39:00.602Z,-2.03
2018-03-02T04:40:03.969Z,-2.01
2018-03-02T04:41:07.279Z,-2.01
2018-03-02T04:42:10.653Z,-2.02
2018-03-02T04:43:13.950Z,-2.02
2018-03-02T04:44:17.334Z,-2.02
2018-03-02T04:45:20.672Z,-2.04
2018-03-02T04:46:24.129Z,-2.04
2018-03-02T04:47:27.567Z,-2.04
2018-03-02T04:48:30.927Z,-2.04
2018-03-02T04:49:34.227Z,-2.03
2018-03-02T04:50:37.549Z,-2.03
2018-03-02T04:51:40.862Z,-2.04
2018-03-02T04:52:44.237Z,-2.04
2018-03-02T04:53:47.573Z,-2.04
2018-03-02T04:54:50.974Z,-2.04
2018-03-02T04:55:54.317Z,-2.05
2018-03-02T04:56:57.670Z,-2.06
2018-03-02T04:58:01.087Z,-2.08
2018-03-02T04:59:04.412Z,-2.10
2018-03-02T05:00:07.812Z,-2.13
2018-03-02T05:01:11.135Z,-2.15
2018-03-02T05:02:14.516Z,-2.13
2018-03-02T05:03:17.899Z,-2.14
2018-03-02T05:04:21.268Z,-2.14
2018-03-02T05:05:24.601Z,-2.14
2018-03-02T05:06:27.923Z,-2.14
2018-03-02T05:07:31.249Z,-2.15
2018-03-02T05:08:34.650Z,-2.16
2018-03-02T05:09:38.066Z,-2.19
2018-03-02T05:10:42.368Z,-2.19
2018-03-02T05:11:45.696Z,-2.16
2018-03-02T05:12:49.017Z,-2.14
2018-03-02T05:13:52.369Z,-2.13
2018-03-02T05:14:55.770Z,-2.12
2018-03-02T05:15:59.149Z,-2.10
2018-03-02T05:17:02.546Z,-2.10
2018-03-02T05:18:05.869Z,-2.11
2018-03-02T05:19:09.292Z,-2.11
2018-03-02T05:20:12.777Z,-2.09
2018-03-02T05:21:16.086Z,-2.06
2018-03-02T05:22:19.420Z,-2.04
2018-03-02T05:23:22.767Z,-2.03
2018-03-02T05:24:26.355Z,-1.99
2018-03-02T05:25:29.766Z,-1.98
2018-03-02T05:26:33.061Z,-1.96
2018-03-02T05:27:36.426Z,-1.95
2018-03-02T05:28:39.815Z,-1.96
2018-03-02T05:29:43.177Z,-1.97
2018-03-02T05:30:46.507Z,-1.99
2018-03-02T05:31:49.929Z,-1.98
2018-03-02T05:32:53.472Z,-1.99
2018-03-02T05:33:56.785Z,-1.99
2018-03-02T05:35:00.196Z,-2.00
2018-03-02T05:36:03.713Z,-2.00
2018-03-02T05:37:07.110Z,-2.01
2018-03-02T05:38:10.550Z,-2.01
2018-03-02T05:39:13.955Z,-2.00
2018-03-02T05:40:17.312Z,-2.01
2018-03-02T05:41:20.648Z,-2.01
2018-03-02T05:42:24.142Z,-2.00
2018-03-02T05:43:27.447Z,-2.01
2018-03-02T05:44:30.985Z,-2.04
2018-03-02T05:45:34.402Z,-2.06
2018-03-02T05:46:37.752Z,-2.08
2018-03-02T05:47:41.069Z,-2.09
2018-03-02T05:48:44.397Z,-2.13
2018-03-02T05:49:47.784Z,-2.14
2018-03-02T05:50:51.178Z,-2.14
2018-03-02T05:51:54.536Z,-2.15
2018-03-02T05:52:58.032Z,-2.14
2018-03-02T05:54:01.484Z,-2.13
2018-03-02T05:55:04.873Z,-2.12
2018-03-02T05:56:08.565Z,-2.12
2018-03-02T05:57:11.960Z,-2.12
2018-03-02T05:58:15.284Z,-2.12
2018-03-02T05:59:18.780Z,-2.12
2018-03-02T06:00:22.141Z,-2.11
2018-03-02T06:01:25.528Z,-2.11
2018-03-02T06:02:28.833Z,-2.10
2018-03-02T06:03:32.181Z,-2.12
2018-03-02T06:04:35.488Z,-2.12
2018-03-02T06:05:38.875Z,-2.11
2018-03-02T06:06:42.378Z,-2.08
2018-03-02T06:07:45.720Z,-2.07
2018-03-02T06:08:49.266Z,-2.07
2018-03-02T06:09:52.601Z,-2.10
2018-03-02T06:10:56.068Z,-2.10
2018-03-02T06:11:59.413Z,-2.12
2018-03-02T06:13:02.783Z,-2.12
2018-03-02T06:14:06.207Z,-2.12
2018-03-02T06:15:09.627Z,-2.12
2018-03-02T06:16:13.016Z,-2.12
2018-03-02T06:17:16.475Z,-2.13
2018-03-02T06:18:19.858Z,-2.12
2018-03-02T06:19:23.192Z,-2.13
2018-03-02T06:20:26.650Z,-2.14
2018-03-02T06:21:30.061Z,-2.15
2018-03-02T06:22:33.423Z,-2.15
2018-03-02T06:23:36.770Z,-2.15
2018-03-02T06:24:40.189Z,-2.14
2018-03-02T06:25:43.602Z,-2.12
2018-03-02T06:26:47.081Z,-2.10
2018-03-02T06:27:50.481Z,-2.09
2018-03-02T06:28:53.799Z,-2.07
2018-03-02T06:29:57.447Z,-2.07
2018-03-02T06:31:00.740Z,-2.06
2018-03-02T06:32:04.234Z,-2.06
2018-03-02T06:33:07.715Z,-2.04
2018-03-02T06:34:11.114Z,-2.04
2018-03-02T06:35:14.449Z,-2.03
2018-03-02T06:36:17.957Z,-2.01
2018-03-02T06:37:21.346Z,-1.99
2018-03-02T06:38:24.829Z,-1.98
2018-03-02T06:39:28.205Z,-1.95
2018-03-02T06:40:31.612Z,-1.95
2018-03-02T06:41:34.937Z,-1.94
2018-03-02T06:42:38.545Z,-1.95
2018-03-02T06:43:42.030Z,-1.95
2018-03-02T06:44:45.429Z,-1.95
2018-03-02T06:45:49.028Z,-1.94
2018-03-02T06:46:52.452Z,-1.94
2018-03-02T06:47:55.821Z,-1.94
2018-03-02T06:48:59.346Z,-1.93
2018-03-02T06:50:02.720Z,-1.91
2018-03-02T06:51:06.240Z,-1.91
2018-03-02T06:52:09.660Z,-1.90
2018-03-02T06:53:13.028Z,-1.91
2018-03-02T06:54:16.515Z,-1.90
2018-03-02T06:55:19.843Z,-1.88
2018-03-02T06:56:23.299Z,-1.87
2018-03-02T06:57:26.616Z,-1.83
2018-03-02T06:58:30.053Z,-1.82
2018-03-02T06:59:33.516Z,-1.82
2018-03-02T07:00:37.132Z,-1.83
2018-03-02T07:01:40.431Z,-1.83
2018-03-02T07:02:43.786Z,-1.87
2018-03-02T07:03:47.227Z,-1.87
2018-03-02T07:04:50.564Z,-1.89
2018-03-02T07:05:54.011Z,-1.87
2018-03-02T07:06:57.445Z,-1.83
2018-03-02T07:08:00.886Z,-1.82
2018-03-02T07:09:04.260Z,-1.82
2018-03-02T07:10:07.708Z,-1.85
2018-03-02T07:11:11.126Z,-1.86
2018-03-02T07:12:14.470Z,-1.87
2018-03-02T07:13:18.115Z,-1.88
2018-03-02T07:14:22.680Z,-1.87
2018-03-02T07:15:26.131Z,-1.88
2018-03-02T07:16:29.450Z,-1.88
2018-03-02T07:17:32.882Z,-1.86
2018-03-02T07:18:36.240Z,-1.85
2018-03-02T07:19:39.622Z,-1.86
2018-03-02T07:20:43.755Z,-1.86
2018-03-02T07:21:47.139Z,-1.87
2018-03-02T07:22:50.593Z,-1.85
2018-03-02T07:23:53.909Z,-1.85
2018-03-02T07:24:57.420Z,-1.84
2018-03-02T07:26:00.779Z,-1.86
2018-03-02T07:27:04.205Z,-1.87
2018-03-02T07:28:07.617Z,-1.85
2018-03-02T07:29:10.941Z,-1.83
2018-03-02T07:30:14.391Z,-1.80
2018-03-02T07:31:17.819Z,-1.78
2018-03-02T07:32:21.181Z,-1.78
2018-03-02T07:33:24.917Z,-1.76
2018-03-02T07:34:28.340Z,-1.73
2018-03-02T07:35:31.799Z,-1.71
2018-03-02T07:36:35.194Z,-1.70
2018-03-02T07:37:38.644Z,-1.68
2018-03-02T07:38:42.475Z,-1.66
2018-03-02T07:39:45.850Z,-1.66
2018-03-02T07:40:49.214Z,-1.65
2018-03-02T07:41:52.614Z,-1.63
2018-03-02T07:42:56.014Z,-1.62
2018-03-02T07:43:59.365Z,-1.62
2018-03-02T07:45:02.716Z,-1.62
2018-03-02T07:46:06.140Z,-1.61
2018-03-02T07:47:09.496Z,-1.61
2018-03-02T07:48:12.899Z,-1.61
2018-03-02T07:49:16.296Z,-1.61
2018-03-02T07:50:19.637Z,-1.60
2018-03-02T07:51:23.289Z,-1.58
2018-03-02T07:52:26.664Z,-1.57
2018-03-02T07:53:30.164Z,-1.56
2018-03-02T07:54:33.490Z,-1.58
2018-03-02T07:55:37.042Z,-1.58
2018-03-02T07:56:40.360Z,-1.57
2018-03-02T07:57:46.105Z,-1.56
2018-03-02T07:58:49.937Z,-1.54
2018-03-02T07:59:53.299Z,-1.53
2018-03-02T08:00:56.728Z,-1.51
2018-03-02T08:02:00.120Z,-1.51
2018-03-02T08:03:03.518Z,-1.47
2018-03-02T08:04:06.992Z,-1.45
2018-03-02T08:05:10.683Z,-1.39
2018-03-02T08:06:14.050Z,-1.37
2018-03-02T08:07:17.591Z,-1.37
2018-03-02T08:08:20.953Z,-1.33
2018-03-02T08:09:24.333Z,-1.34
2018-03-02T08:10:27.657Z,-1.33
2018-03-02T08:11:31.000Z,-1.33
2018-03-02T08:12:34.460Z,-1.32
2018-03-02T08:13:37.796Z,-1.29
2018-03-02T08:14:41.172Z,-1.28
2018-03-02T08:15:44.658Z,-1.28
2018-03-02T08:16:47.977Z,-1.28
2018-03-02T08:17:51.549Z,-1.27
2018-03-02T08:18:55.193Z,-1.28
2018-03-02T08:19:58.541Z,-1.27
2018-03-02T08:21:01.866Z,-1.27
2018-03-02T08:22:05.280Z,-1.27
2018-03-02T08:23:08.964Z,-1.27
2018-03-02T08:24:12.581Z,-1.28
2018-03-02T08:25:15.958Z,-1.29
2018-03-02T08:26:20.099Z,-1.29
2018-03-02T08:27:23.506Z,-1.29
2018-03-02T08:28:26.863Z,-1.29
2018-03-02T08:29:30.285Z,-1.28
2018-03-02T08:30:34.597Z,-1.29
2018-03-02T08:31:38.347Z,-1.29
2018-03-02T08:32:41.819Z,-1.31
2018-03-02T08:33:45.390Z,-1.30
2018-03-02T08:34:48.875Z,-1.28
2018-03-02T08:35:52.300Z,-1.26
2018-03-02T08:36:55.865Z,-1.24
2018-03-02T08:37:59.346Z,-1.24
2018-03-02T08:39:02.703Z,-1.24
2018-03-02T08:40:06.987Z,-1.24
2018-03-02T08:41:10.325Z,-1.23
2018-03-02T08:42:13.856Z,-1.20
2018-03-02T08:43:17.180Z,-1.19
2018-03-02T08:44:20.623Z,-1.20
2018-03-02T08:45:24.287Z,-1.17
2018-03-02T08:46:27.604Z,-1.14
2018-03-02T08:47:30.937Z,-1.10
2018-03-02T08:48:34.267Z,-1.06
2018-03-02T08:49:37.606Z,-1.03
2018-03-02T08:50:40.972Z,-1.00
2018-03-02T08:51:44.425Z,-0.96
2018-03-02T08:52:47.758Z,-0.97
2018-03-02T08:53:51.106Z,-0.96
2018-03-02T08:54:54.714Z,-0.94
2018-03-02T08:55:58.112Z,-0.92
2018-03-02T08:57:01.519Z,-0.90
2018-03-02T08:58:04.893Z,-0.89
2018-03-02T08:59:08.407Z,-0.86
2018-03-02T09:00:11.875Z,-0.83
2018-03-02T09:01:15.250Z,-0.81
2018-03-02T09:02:18.593Z,-0.76
2018-03-02T09:03:21.924Z,-0.73
2018-03-02T09:05:35.051Z,-0.65
2018-03-02T09:06:38.806Z,-0.60
2018-03-02T09:07:42.133Z,-0.52
2018-03-02T09:08:45.432Z,-0.48
2018-03-02T09:09:48.785Z,-0.44
2018-03-02T09:10:52.176Z,-0.40
2018-03-02T09:11:55.527Z,-0.36
2018-03-02T09:12:58.905Z,-0.32
2018-03-02T09:14:02.253Z,-0.28
2018-03-02T09:15:05.780Z,-0.24
2018-03-02T09:16:09.272Z,-0.21
2018-03-02T09:17:12.655Z,-0.18
2018-03-02T09:18:15.970Z,-0.13
2018-03-02T09:19:19.388Z,-0.07
2018-03-02T09:20:22.795Z,-0.02
2018-03-02T09:21:26.236Z,0.03
2018-03-02T09:22:29.566Z,0.08
2018-03-02T09:23:32.927Z,0.11
2018-03-02T09:24:36.315Z,0.13
2018-03-02T09:25:39.693Z,0.16
2018-03-02T09:26:43.048Z,0.18
2018-03-02T09:27:46.391Z,0.22
2018-03-02T09:28:49.807Z,0.24
2018-03-02T09:29:53.255Z,0.27
2018-03-02T09:30:56.708Z,0.29
2018-03-02T09:32:00.041Z,0.32
2018-03-02T09:33:03.448Z,0.35
2018-03-02T09:34:06.878Z,0.37
2018-03-02T09:35:10.226Z,0.35
2018-03-02T09:36:13.642Z,0.34
2018-03-02T09:37:17.056Z,0.33
2018-03-02T09:38:20.433Z,0.34
2018-03-02T09:39:24.131Z,0.35
2018-03-02T09:40:27.451Z,0.39
2018-03-02T09:41:30.808Z,0.42
2018-03-02T09:42:34.120Z,0.47
2018-03-02T09:43:37.567Z,0.52
2018-03-02T09:44:41.015Z,0.57
2018-03-02T09:45:44.407Z,0.58
2018-03-02T09:46:47.738Z,0.60
2018-03-02T09:47:51.034Z,0.62
2018-03-02T09:48:54.565Z,0.63
2018-03-02T09:49:58.191Z,0.64
2018-03-02T09:51:01.585Z,0.63
2018-03-02T09:52:04.909Z,0.64
2018-03-02T09:53:08.451Z,0.64
2018-03-02T09:54:11.825Z,0.63
2018-03-02T09:55:15.217Z,0.66
2018-03-02T09:56:18.592Z,0.67
2018-03-02T09:57:22.013Z,0.69
2018-03-02T09:58:25.350Z,0.69
2018-03-02T09:59:28.843Z,0.68
2018-03-02T10:00:32.306Z,0.69
2018-03-02T10:01:35.815Z,0.69
2018-03-02T10:02:39.149Z,0.70
2018-03-02T10:03:42.530Z,0.74
2018-03-02T10:04:45.970Z,0.78
2018-03-02T10:05:49.350Z,0.82
2018-03-02T10:06:52.697Z,0.87
2018-03-02T10:07:56.044Z,0.90
2018-03-02T10:08:59.364Z,0.93
2018-03-02T10:10:02.838Z,0.95
2018-03-02T10:11:06.208Z,0.98
2018-03-02T10:12:09.694Z,1.01
2018-03-02T10:13:13.040Z,1.05
2018-03-02T10:14:16.413Z,1.08
2018-03-02T10:15:19.786Z,1.12
2018-03-02T10:16:23.169Z,1.12
2018-03-02T10:17:26.690Z,1.12
2018-03-02T10:18:30.032Z,1.12
2018-03-02T10:19:33.356Z,1.12
2018-03-02T10:20:36.745Z,1.11
2018-03-02T10:21:40.113Z,1.11
2018-03-02T10:22:43.480Z,1.11
2018-03-02T10:23:46.894Z,1.13
2018-03-02T10:24:50.256Z,1.17
2018-03-02T10:25:53.655Z,1.20
2018-03-02T10:26:57.047Z,1.23
2018-03-02T10:28:00.438Z,1.28
2018-03-02T10:29:03.764Z,1.33
2018-03-02T10:30:07.090Z,1.37
2018-03-02T10:31:10.453Z,1.38
2018-03-02T10:32:14.069Z,1.38
2018-03-02T10:33:17.482Z,1.39
2018-03-02T10:34:20.894Z,1.41
2018-03-02T10:35:24.285Z,1.43
2018-03-02T10:36:32.928Z,1.45
2018-03-02T10:37:35.972Z,1.48
2018-03-02T10:38:39.294Z,1.50
2018-03-02T10:39:42.692Z,1.52
2018-03-02T10:40:46.095Z,1.53
2018-03-02T10:41:49.504Z,1.52
2018-03-02T10:42:52.869Z,1.53
2018-03-02T10:43:56.201Z,1.53
2018-03-02T10:44:59.527Z,1.52
2018-03-02T10:46:02.824Z,1.53
2018-03-02T10:47:06.202Z,1.54
2018-03-02T10:48:09.512Z,1.56
2018-03-02T10:49:12.859Z,1.57
2018-03-02T10:50:16.192Z,1.58
2018-03-02T10:51:19.603Z,1.60
2018-03-02T10:52:22.964Z,1.62
2018-03-02T10:53:26.481Z,1.63
2018-03-02T10:54:30.038Z,1.65
2018-03-02T10:55:33.337Z,1.68
2018-03-02T10:56:36.691Z,1.71
2018-03-02T10:57:40.031Z,1.73
2018-03-02T10:58:43.468Z,1.76
2018-03-02T10:59:46.980Z,1.79
2018-03-02T11:00:52.150Z,1.82
2018-03-02T11:01:55.538Z,1.84
2018-03-02T11:02:58.937Z,1.86
2018-03-02T11:04:02.240Z,1.87
2018-03-02T11:05:10.626Z,1.87
2018-03-02T11:06:14.002Z,1.89
2018-03-02T11:07:17.403Z,1.90
2018-03-02T11:08:20.951Z,1.92
2018-03-02T11:09:24.295Z,1.93
2018-03-02T11:10:27.759Z,1.93
2018-03-02T11:11:31.112Z,1.93
2018-03-02T11:12:34.428Z,1.95
2018-03-02T11:13:37.847Z,1.95
2018-03-02T11:14:41.204Z,1.95
2018-03-02T11:15:44.580Z,1.97
2018-03-02T11:16:48.252Z,2.00
2018-03-02T11:17:51.743Z,2.01
2018-03-02T11:18:55.277Z,2.03
2018-03-02T11:19:58.734Z,2.06
2018-03-02T11:21:02.085Z,2.07
2018-03-02T11:22:05.485Z,2.08
2018-03-02T11:23:08.797Z,2.07
2018-03-02T11:24:12.142Z,2.05
2018-03-02T11:25:15.450Z,2.02
2018-03-02T11:26:18.848Z,2.01
2018-03-02T11:27:22.269Z,2.01
2018-03-02T11:28:25.674Z,2.01
2018-03-02T11:29:29.068Z,2.00
2018-03-02T11:30:32.504Z,1.99
2018-03-02T11:31:35.910Z,2.01
2018-03-02T11:32:39.242Z,2.02
2018-03-02T11:33:42.555Z,2.05
2018-03-02T11:34:47.711Z,2.07
2018-03-02T11:35:51.067Z,2.07
2018-03-02T11:36:54.625Z,2.11
2018-03-02T11:37:58.053Z,2.14
2018-03-02T11:39:01.512Z,2.18
2018-03-02T11:40:05.680Z,2.19
2018-03-02T11:41:09.030Z,2.19
2018-03-02T11:42:12.381Z,2.19
2018-03-02T11:43:15.705Z,2.20
2018-03-02T11:44:19.106Z,2.22
2018-03-02T11:45:22.519Z,2.26
2018-03-02T11:46:25.824Z,2.30
2018-03-02T11:47:29.295Z,2.34
2018-03-02T11:48:32.687Z,2.38
2018-03-02T11:49:36.034Z,2.40
2018-03-02T11:50:39.451Z,2.42
2018-03-02T11:51:42.752Z,2.42
2018-03-02T11:52:46.090Z,2.45
2018-03-02T11:53:49.428Z,2.47
2018-03-02T11:54:53.000Z,2.50
2018-03-02T11:55:57.512Z,2.52
2018-03-02T11:57:00.987Z,2.54
2018-03-02T11:58:04.693Z,2.55
2018-03-02T11:59:08.080Z,2.56
2018-03-02T12:00:11.579Z,2.56
2018-03-02T12:01:14.970Z,2.59
2018-03-02T12:02:19.153Z,2.61
2018-03-02T12:03:23.274Z,2.63
2018-03-02T12:04:26.655Z,2.67
2018-03-02T12:05:30.086Z,2.69
2018-03-02T12:06:33.429Z,2.69
2018-03-02T12:07:36.754Z,2.69
2018-03-02T12:08:40.077Z,2.70
2018-03-02T12:09:43.479Z,2.71
2018-03-02T12:10:47.570Z,2.71
2018-03-02T12:11:52.092Z,2.72
2018-03-02T12:12:55.536Z,2.74
2018-03-02T12:13:58.973Z,2.77
2018-03-02T12:15:02.281Z,2.78
2018-03-02T12:16:05.736Z,2.80
2018-03-02T12:17:09.114Z,2.83
2018-03-02T12:18:12.657Z,2.84
2018-03-02T12:19:16.509Z,2.86
2018-03-02T12:20:20.141Z,2.87
2018-03-02T12:21:23.757Z,2.90
2018-03-02T12:22:27.474Z,2.91
2018-03-02T12:23:30.921Z,2.92
2018-03-02T12:24:34.281Z,2.94
2018-03-02T12:25:37.690Z,2.94
2018-03-02T12:26:41.057Z,2.95
2018-03-02T12:27:44.528Z,2.96
2018-03-02T12:28:47.866Z,2.98
2018-03-02T12:29:51.193Z,3.00
2018-03-02T12:30:54.517Z,3.01
2018-03-02T12:31:58.028Z,3.01
2018-03-02T12:33:01.452Z,3.02
2018-03-02T12:34:04.766Z,3.02
2018-03-02T12:35:08.317Z,3.03
2018-03-02T12:36:11.894Z,3.04
2018-03-02T12:37:15.725Z,3.05
2018-03-02T12:38:19.291Z,3.07
2018-03-02T12:39:22.664Z,3.11
2018-03-02T12:40:26.186Z,3.14
2018-03-02T12:41:29.523Z,3.19
2018-03-02T12:42:32.875Z,3.23
2018-03-02T12:43:36.223Z,3.25
2018-03-02T12:44:39.598Z,3.26
2018-03-02T12:45:43.035Z,3.26
2018-03-02T12:46:46.357Z,3.23
2018-03-02T12:47:49.762Z,3.23
2018-03-02T12:48:53.391Z,3.21
2018-03-02T12:49:56.810Z,3.20
2018-03-02T12:51:00.223Z,3.21
2018-03-02T12:52:03.523Z,3.20
2018-03-02T12:53:06.876Z,3.22
2018-03-02T12:54:10.207Z,3.26
2018-03-02T12:55:13.567Z,3.29
2018-03-02T12:56:16.846Z,3.33
2018-03-02T12:57:20.335Z,3.35
2018-03-02T12:58:23.945Z,3.37
2018-03-02T12:59:27.409Z,3.37
2018-03-02T13:00:30.944Z,3.38
2018-03-02T13:01:34.296Z,3.39
2018-03-02T13:02:37.861Z,3.39
2018-03-02T13:03:41.222Z,3.40
2018-03-02T13:04:44.654Z,3.41
2018-03-02T13:05:48.232Z,3.41
2018-03-02T13:06:51.734Z,3.43
2018-03-02T13:07:55.060Z,3.45
2018-03-02T13:08:58.374Z,3.46
2018-03-02T13:10:01.815Z,3.47
2018-03-02T13:11:05.183Z,3.46
2018-03-02T13:12:08.632Z,3.44
2018-03-02T13:13:12.154Z,3.41
2018-03-02T13:14:15.557Z,3.39
2018-03-02T13:15:19.402Z,3.38
2018-03-02T13:16:22.804Z,3.40
2018-03-02T13:17:26.129Z,3.43
2018-03-02T13:18:42.299Z,3.46
2018-03-02T13:19:45.654Z,3.47
2018-03-02T13:20:49.165Z,3.48
2018-03-02T13:21:52.610Z,3.50
2018-03-02T13:22:55.913Z,3.52
2018-03-02T13:23:59.854Z,3.56
2018-03-02T13:25:03.385Z,3.59
2018-03-02T13:26:06.997Z,3.64
2018-03-02T13:27:22.165Z,3.67
2018-03-02T13:28:37.506Z,3.70
2018-03-02T13:29:40.911Z,3.75
2018-03-02T13:30:44.335Z,3.80
2018-03-02T13:31:47.771Z,3.85
2018-03-02T13:33:03.000Z,3.89
2018-03-02T13:34:18.135Z,3.92
2018-03-02T13:35:21.727Z,3.95
2018-03-02T13:36:25.114Z,3.99
2018-03-02T13:37:28.519Z,4.02
2018-03-02T13:38:31.888Z,4.06
2018-03-02T13:39:46.921Z,4.07
2018-03-02T13:41:02.156Z,4.08
2018-03-02T13:42:07.903Z,4.09
2018-03-02T13:43:11.275Z,4.12
2018-03-02T13:44:14.673Z,4.15
2018-03-02T13:45:17.979Z,4.19
2018-03-02T13:46:21.316Z,4.20
2018-03-02T13:47:31.218Z,4.23